»·PEaware :: N623LS KMRY-KDVO

N623LS :: KMRY-KDVO

FLIGHT INFORMATION

Flight Status: Arrived
Operator: Privately registered:
United States
More flights under this callsign
Pilot: Anonymous 18292 (18292)
Aircraft: MOONEY M-20 201 202 205 220 ATS MSE
(M20P)
More flights by this aircraft type
Origin: KMRY Monterey Peninsula
United States
Destination: KDVO Gnoss
United States
More flights between these airports :: More routes between these airports
Route:
File this flight plan on PilotEdge
Remarks:
Altitude:
(Current/Filed)
4,500ft
Speed:
(Current/Filed)
172kts
Departed: 07-Jun-20 02:57 PM
Arrived: 07-Jun-20 03:45 PM
Distance/Time
Traveled:
99nm/0:48
Distance/Time
To Go:
Arrived

Flight Plot

Page will automatically refresh every two minutes.

Flight plan parsing failed; only flown route is shown


Map Options




Map Legend


Flown Route
Filed Route
Departure Airport
Arrival Airport
Navaid (VOR, NDB)
Fix

Horizontal Profiles

Position Reports

Time Latitude Longitude Heading Altitude Ground
Speed
07-Jun-20 14:27 36.591885 -121.849881 167 152ft 0kts
07-Jun-20 14:28 36.591885 -121.849881 167 152ft 0kts
07-Jun-20 14:29 36.591885 -121.849881 167 152ft 0kts
07-Jun-20 14:30 36.591885 -121.849881 167 152ft 0kts
07-Jun-20 14:31 36.591885 -121.849881 167 152ft 0kts
07-Jun-20 14:32 36.591885 -121.849881 167 152ft 0kts
07-Jun-20 14:33 36.591885 -121.849881 167 152ft 0kts
07-Jun-20 14:34 36.591885 -121.849881 167 152ft 0kts
07-Jun-20 14:35 36.591885 -121.849881 167 152ft 0kts
07-Jun-20 14:36 36.591885 -121.849881 167 152ft 0kts
07-Jun-20 14:37 36.591885 -121.849881 167 152ft 0kts
07-Jun-20 14:38 36.591885 -121.849881 167 152ft 0kts
07-Jun-20 14:39 36.591885 -121.849881 167 152ft 0kts
07-Jun-20 14:40 36.591885 -121.849881 167 152ft 0kts
07-Jun-20 14:41 36.591885 -121.849881 167 152ft 0kts
07-Jun-20 14:42 36.591885 -121.849881 167 152ft 0kts
07-Jun-20 14:42 36.591885 -121.849881 167 152ft 0kts
07-Jun-20 14:44 36.591885 -121.849881 167 152ft 0kts
07-Jun-20 14:44 36.591885 -121.849881 167 152ft 0kts
07-Jun-20 14:45 36.591819 -121.849868 173 153ft 0kts
07-Jun-20 14:47 36.590908 -121.850914 166 157ft 5kts
07-Jun-20 14:47 36.589851 -121.850191 112 166ft 8kts
07-Jun-20 14:48 36.588742 -121.846899 112 180ft 11kts
07-Jun-20 14:49 36.588630 -121.843490 113 180ft 10kts
07-Jun-20 14:50 36.587527 -121.840239 112 218ft 12kts
07-Jun-20 14:51 36.586237 -121.836463 112 258ft 11kts
07-Jun-20 14:52 36.585478 -121.833696 102 289ft 5kts
07-Jun-20 14:53 36.585355 -121.833510 184 291ft 0kts
07-Jun-20 14:54 36.585355 -121.833510 184 291ft 0kts
07-Jun-20 14:55 36.585238 -121.833502 177 291ft 0kts
07-Jun-20 14:56 36.586962 -121.840021 295 343ft 76kts
07-Jun-20 14:57 36.605823 -121.850541 22 1473ft 113kts
07-Jun-20 14:58 36.631390 -121.827439 28 2779ft 116kts
07-Jun-20 14:59 36.657496 -121.801819 24 3871ft 122kts
07-Jun-20 15:00 36.688123 -121.779846 18 4540ft 136kts
07-Jun-20 15:01 36.725457 -121.765896 4 4510ft 143kts
07-Jun-20 15:02 36.766987 -121.761254 358 4507ft 154kts
07-Jun-20 15:03 36.809804 -121.770633 341 4423ft 159kts
07-Jun-20 15:04 36.850851 -121.789352 335 4496ft 155kts
07-Jun-20 15:05 36.890310 -121.811676 332 4550ft 154kts
07-Jun-20 15:06 36.928063 -121.838277 325 4500ft 160kts
07-Jun-20 15:07 36.961646 -121.875082 315 4448ft 161kts
07-Jun-20 15:08 36.982649 -121.924982 291 4452ft 163kts
07-Jun-20 15:09 36.990925 -121.981301 281 4450ft 166kts
07-Jun-20 15:10 36.996317 -122.038658 282 4446ft 166kts
07-Jun-20 15:11 37.009350 -122.092815 298 4443ft 161kts
07-Jun-20 15:12 37.031474 -122.140749 307 4468ft 158kts
07-Jun-20 15:13 37.058476 -122.184100 313 4498ft 157kts
07-Jun-20 15:14 37.089874 -122.222432 318 4461ft 159kts
07-Jun-20 15:15 37.119548 -122.263370 312 4512ft 157kts
07-Jun-20 15:16 37.149316 -122.305444 315 4470ft 159kts
07-Jun-20 15:17 37.182838 -122.341674 321 4485ft 158kts
07-Jun-20 15:18 37.219677 -122.372085 333 4413ft 161kts
07-Jun-20 15:19 37.261946 -122.389357 345 4510ft 156kts
07-Jun-20 15:20 37.305757 -122.396739 350 4508ft 160kts
07-Jun-20 15:21 37.350255 -122.403787 349 4478ft 163kts
07-Jun-20 15:22 37.395071 -122.409894 327 4386ft 164kts
07-Jun-20 15:23 37.428772 -122.444577 291 4191ft 168kts
07-Jun-20 15:24 37.454831 -122.487296 330 3590ft 154kts
07-Jun-20 15:25 37.495523 -122.503206 337 3483ft 153kts
07-Jun-20 15:26 37.527503 -122.538844 322 3361ft 153kts
07-Jun-20 15:27 37.571527 -122.532592 10 2592ft 168kts
07-Jun-20 15:28 37.615774 -122.521778 4 2189ft 159kts
07-Jun-20 15:29 37.652440 -122.542870 350 1517ft 150kts
07-Jun-20 15:30 37.692261 -122.534449 29 1505ft 162kts
07-Jun-20 15:31 37.732863 -122.515319 348 1623ft 153kts
07-Jun-20 15:32 37.775867 -122.523335 350 2226ft 156kts
07-Jun-20 15:33 37.820610 -122.523940 356 2591ft 163kts
07-Jun-20 15:34 37.865468 -122.519797 359 2619ft 162kts
07-Jun-20 15:35 37.909968 -122.523993 345 2580ft 160kts
07-Jun-20 15:36 37.953144 -122.535636 343 2549ft 160kts
07-Jun-20 15:37 37.998039 -122.540169 357 2495ft 163kts
07-Jun-20 15:38 38.043605 -122.543799 351 2395ft 165kts
07-Jun-20 15:39 38.089443 -122.549638 347 2283ft 167kts
07-Jun-20 15:40 38.134706 -122.556547 0 1931ft 156kts
07-Jun-20 15:41 38.171805 -122.537388 343 1455ft 123kts
07-Jun-20 15:42 38.152070 -122.552037 165 802ft 131kts
07-Jun-20 15:43 38.129691 -122.542975 258 541ft 75kts
07-Jun-20 15:44 38.142828 -122.556558 330 4ft 32kts
07-Jun-20 15:45 38.143101 -122.557393 150 4ft 20kts
07-Jun-20 15:46 38.141389 -122.556905 242 4ft 0kts

Navigation Log

Ident Type
Flight plan parsing failed, navigation log unavailable